Time;durP1;ratioP1;P1;durP2;ratioP2;P2;SDS_P1;SDS_P2;PMS_P1;PMS_P2;Temp;Humidity;BMP_temperature;BMP_pressure;BME280_temperature;BME280_humidity;BME280_pressure;Samples;Min_cycle;Max_cycle;Signal;HPM_P1;HPM_P2
2022/04/20 00:01:06;;;;;;;;;;;;;;;;;;5093025;28;840;-67
2022/04/20 00:03:31;;;;;;;;;;;;;;;;;;5091832;28;872;-66
2022/04/20 00:05:56;;;;;;;;;;;;;;;;;;5092555;28;843;-66
2022/04/20 00:08:22;;;;;;;;;;;;;;;;;;5093349;28;880;-65
2022/04/20 00:10:47;;;;;;;;;;;;;;;;;;5092877;28;947;-65
2022/04/20 00:13:12;;;;;;;;;;;;;;;;;;5092667;28;904;-66
2022/04/20 00:15:37;;;;;;;;;;;;;;;;;;5073753;28;1207;-67
2022/04/20 00:18:03;;;;;;;;;;;;;;;;;;5073698;28;1953;-66
2022/04/20 00:20:29;;;;;;;;;;;;;;;;;;5091922;28;1345;-67
2022/04/20 00:22:54;;;;;;;;;;;;;;;;;;5073419;28;1171;-68
2022/04/20 00:25:20;;;;;;;;;;;;;;;;;;5092258;28;951;-66
2022/04/20 00:27:45;;;;;;;;;;;;;;;;;;5091279;28;1039;-66
2022/04/20 00:30:11;;;;;;;;;;;;;;;;;;5091739;28;999;-66
2022/04/20 00:32:36;;;;;;;;;;;;;;;;;;5091372;28;852;-66
2022/04/20 00:35:02;;;;;;;;;;;;;;;;;;5091550;28;813;-66
2022/04/20 00:37:27;;;;;;;;;;;;;;;;;;5091081;28;1909;-66
2022/04/20 00:39:52;;;;;;;;;;;;;;;;;;5072727;28;1217;-66
2022/04/20 00:42:19;;;;;;;;;;;;;;;;;;5089878;28;992;-66
2022/04/20 00:44:44;;;;;;;;;;;;;;;;;;5089104;28;1159;-67
2022/04/20 00:47:10;;;;;;;;;;;;;;;;;;5091718;28;837;-67
2022/04/20 00:49:35;;;;;;;;;;;;;;;;;;5089564;28;1247;-67
2022/04/20 00:52:01;;;;;;;;;;;;;;;;;;5091279;28;1148;-67
2022/04/20 00:54:26;;;;;;;;;;;;;;;;;;5091604;28;1005;-65
2022/04/20 00:56:52;;;;;;;;;;;;;;;;;;5090155;28;1918;-68
2022/04/20 00:59:18;;;;;;;;;;;;;;;;;;5091604;28;1022;-68
2022/04/20 01:01:44;;;;;;;;;;;;;;;;;;5091199;28;879;-65
2022/04/20 01:04:09;;;;;;;;;;;;;;;;;;5091399;28;786;-66
2022/04/20 01:06:35;;;;;;;;;;;;;;;;;;5090984;28;836;-67
2022/04/20 01:09:00;;;;;;;;;;;;;;;;;;5073328;28;1316;-67
2022/04/20 01:11:27;;;;;;;;;;;;;;;;;;5090031;28;1289;-68
2022/04/20 01:13:52;;;;;;;;;;;;;;;;;;5091912;28;821;-67
2022/04/20 01:16:17;;;;;;;;;;;;;;;;;;5095452;28;943;-67
2022/04/20 01:18:45;;;;;;;;;;;;;;;;;;5095009;28;1953;-67
2022/04/20 01:21:11;;;;;;;;;;;;;;;;;;5094351;28;935;-67
2022/04/20 01:23:37;;;;;;;;;;;;;;;;;;5094019;28;1265;-67
2022/04/20 01:26:09;;;;;;;;;;;;;;;;;;5077274;28;1234;-67
2022/04/20 01:28:35;;;;;;;;;;;;;;;;;;5095667;28;951;-67
2022/04/20 01:31:00;;;;;;;;;;;;;;;;;;5094015;28;1336;-67
2022/04/20 01:33:25;;;;;;;;;;;;;;;;;;5095854;28;836;-67
2022/04/20 01:35:51;;;;;;;;;;;;;;;;;;5095209;28;888;-67
2022/04/20 01:38:16;;;;;;;;;;;;;;;;;;5094977;28;1897;-67
2022/04/20 01:40:41;;;;;;;;;;;;;;;;;;5095031;28;900;-66
2022/04/20 01:43:06;;;;;;;;;;;;;;;;;;5095567;28;891;-66
2022/04/20 01:45:32;;;;;;;;;;;;;;;;;;5095501;28;971;-66
2022/04/20 01:47:57;;;;;;;;;;;;;;;;;;5094919;28;1019;-67
2022/04/20 01:50:22;;;;;;;;;;;;;;;;;;5095299;28;919;-67
2022/04/20 01:52:48;;;;;;;;;;;;;;;;;;5094500;28;820;-67
2022/04/20 01:55:13;;;;;;;;;;;;;;;;;;5093763;28;1630;-67
2022/04/20 01:57:38;;;;;;;;;;;;;;;;;;5094356;28;1898;-67
2022/04/20 02:00:04;;;;;;;;;;;;;;;;;;5093175;28;1039;-67
2022/04/20 02:02:36;;;;;;;;;;;;;;;;;;5094959;28;994;-67
2022/04/20 02:05:05;;;;;;;;;;;;;;;;;;5094094;28;888;-67
2022/04/20 02:07:31;;;;;;;;;;;;;;;;;;5094526;28;946;-65
2022/04/20 02:09:56;;;;;;;;;;;;;;;;;;5094286;28;836;-67
2022/04/20 02:12:21;;;;;;;;;;;;;;;;;;5094606;28;923;-65
2022/04/20 02:14:47;;;;;;;;;;;;;;;;;;5093595;28;986;-66
2022/04/20 02:17:12;;;;;;;;;;;;;;;;;;5094366;28;1897;-66
2022/04/20 02:19:38;;;;;;;;;;;;;;;;;;5093934;28;895;-65
2022/04/20 02:22:03;;;;;;;;;;;;;;;;;;5092793;28;856;-66
2022/04/20 02:24:28;;;;;;;;;;;;;;;;;;5094016;28;840;-66
2022/04/20 02:26:53;;;;;;;;;;;;;;;;;;5093163;28;987;-66
2022/04/20 02:29:19;;;;;;;;;;;;;;;;;;5092313;28;1291;-67
2022/04/20 02:31:44;;;;;;;;;;;;;;;;;;5093461;28;954;-66
2022/04/20 02:34:09;;;;;;;;;;;;;;;;;;5093353;28;865;-67
2022/04/20 02:36:35;;;;;;;;;;;;;;;;;;5092047;28;1906;-67
2022/04/20 02:39:04;;;;;;;;;;;;;;;;;;5091794;28;1360;-66
2022/04/20 02:41:29;;;;;;;;;;;;;;;;;;5092214;28;813;-66
2022/04/20 02:43:55;;;;;;;;;;;;;;;;;;5093465;28;1014;-66
2022/04/20 02:46:22;;;;;;;;;;;;;;;;;;5093510;28;1050;-67
2022/04/20 02:48:48;;;;;;;;;;;;;;;;;;5093129;28;812;-67
2022/04/20 02:51:13;;;;;;;;;;;;;;;;;;5092219;28;943;-67
2022/04/20 02:53:39;;;;;;;;;;;;;;;;;;5091648;28;1175;-67
2022/04/20 02:56:04;;;;;;;;;;;;;;;;;;5093170;28;790;-67
2022/04/20 02:58:29;;;;;;;;;;;;;;;;;;5093137;28;1897;-67
2022/04/20 03:00:54;;;;;;;;;;;;;;;;;;5093096;28;829;-67
2022/04/20 03:03:20;;;;;;;;;;;;;;;;;;5092670;28;1198;-67
2022/04/20 03:05:45;;;;;;;;;;;;;;;;;;5093274;28;857;-67
2022/04/20 03:08:10;;;;;;;;;;;;;;;;;;5074891;28;1371;-67
2022/04/20 03:10:36;;;;;;;;;;;;;;;;;;5093710;28;952;-67
2022/04/20 03:13:01;;;;;;;;;;;;;;;;;;5093429;28;833;-67
2022/04/20 03:15:26;;;;;;;;;;;;;;;;;;5093559;28;1027;-67
2022/04/20 03:17:52;;;;;;;;;;;;;;;;;;5093208;28;1910;-67
2022/04/20 03:20:17;;;;;;;;;;;;;;;;;;5092559;28;796;-66
2022/04/20 03:22:42;;;;;;;;;;;;;;;;;;5091999;28;1295;-66
2022/04/20 03:25:08;;;;;;;;;;;;;;;;;;5091679;28;1218;-66
2022/04/20 03:27:33;;;;;;;;;;;;;;;;;;5093318;28;842;-66
2022/04/20 03:29:58;;;;;;;;;;;;;;;;;;5093010;28;868;-66
2022/04/20 03:32:24;;;;;;;;;;;;;;;;;;5091567;28;829;-67
2022/04/20 03:34:49;;;;;;;;;;;;;;;;;;5091807;28;1179;-67
2022/04/20 03:37:15;;;;;;;;;;;;;;;;;;5091943;28;1984;-65
2022/04/20 03:39:40;;;;;;;;;;;;;;;;;;5092419;28;1006;-66
2022/04/20 03:42:06;;;;;;;;;;;;;;;;;;5092453;28;828;-66
2022/04/20 03:44:31;;;;;;;;;;;;;;;;;;5092659;28;813;-67
2022/04/20 03:46:57;;;;;;;;;;;;;;;;;;5092225;28;887;-67
2022/04/20 03:49:22;;;;;;;;;;;;;;;;;;5091220;28;1305;-67
2022/04/20 03:51:47;;;;;;;;;;;;;;;;;;5092179;28;1161;-66
2022/04/20 03:54:13;;;;;;;;;;;;;;;;;;5073646;28;1313;-66
2022/04/20 03:59:22;;;;;;;;;;;;;;;;;;5092435;28;1102;-66
2022/04/20 04:01:48;;;;;;;;;;;;;;;;;;5091909;28;820;-66
2022/04/20 04:04:13;;;;;;;;;;;;;;;;;;5090451;28;1306;-66
2022/04/20 04:06:38;;;;;;;;;;;;;;;;;;5091925;28;900;-66
2022/04/20 04:09:03;;;;;;;;;;;;;;;;;;5090406;28;1345;-66
2022/04/20 04:11:29;;;;;;;;;;;;;;;;;;5091999;28;971;-66
2022/04/20 04:13:54;;;;;;;;;;;;;;;;;;5091712;28;868;-66
2022/04/20 04:16:20;;;;;;;;;;;;;;;;;;5091779;28;907;-66
2022/04/20 04:18:45;;;;;;;;;;;;;;;;;;5090093;28;1901;-66
2022/04/20 04:21:10;;;;;;;;;;;;;;;;;;5091911;28;875;-66
2022/04/20 04:23:36;;;;;;;;;;;;;;;;;;5091786;28;906;-66
2022/04/20 04:26:01;;;;;;;;;;;;;;;;;;5091037;28;999;-66
2022/04/20 04:28:26;;;;;;;;;;;;;;;;;;5091827;28;971;-66
2022/04/20 04:30:51;;;;;;;;;;;;;;;;;;5090263;28;1373;-67
2022/04/20 04:33:17;;;;;;;;;;;;;;;;;;5073182;28;1199;-67
2022/04/20 04:35:42;;;;;;;;;;;;;;;;;;5091358;28;935;-67
2022/04/20 04:38:07;;;;;;;;;;;;;;;;;;5089934;28;1959;-67
2022/04/20 04:40:32;;;;;;;;;;;;;;;;;;5090435;28;1352;-67
2022/04/20 04:42:58;;;;;;;;;;;;;;;;;;5091529;28;1015;-67
2022/04/20 04:50:51;;;;;;;;;;;;;;;;;;5092770;28;619;-67
2022/04/20 04:53:16;;;;;;;;;;;;;;;;;;5090624;28;1183;-67
2022/04/20 04:55:41;;;;;;;;;;;;;;;;;;5090306;28;797;-67
2022/04/20 04:58:06;;;;;;;;;;;;;;;;;;5090690;28;1909;-67
2022/04/20 05:00:32;;;;;;;;;;;;;;;;;;5083844;28;1235;-67
2022/04/20 05:02:58;;;;;;;;;;;;;;;;;;5070042;28;1163;-67
2022/04/20 05:05:23;;;;;;;;;;;;;;;;;;5073264;28;1230;-67
2022/04/20 05:07:54;;;;;;;;;;;;;;;;;;5074039;28;1179;-67
2022/04/20 05:10:20;;;;;;;;;;;;;;;;;;5070439;28;1203;-66
2022/04/20 05:12:45;;;;;;;;;;;;;;;;;;5070356;28;849;-66
2022/04/20 05:15:10;;;;;;;;;;;;;;;;;;5071364;28;983;-66
2022/04/20 05:17:35;;;;;;;;;;;;;;;;;;5071945;28;1959;-67
2022/04/20 05:20:00;;;;;;;;;;;;;;;;;;5071147;28;757;-67
2022/04/20 05:22:26;;;;;;;;;;;;;;;;;;5071099;28;832;-67
2022/04/20 05:24:51;;;;;;;;;;;;;;;;;;5071273;28;880;-67
2022/04/20 05:27:16;;;;;;;;;;;;;;;;;;5082703;28;1116;-67
2022/04/20 05:29:41;;;;;;;;;;;;;;;;;;5076435;28;1084;-67
2022/04/20 05:32:07;;;;;;;;;;;;;;;;;;5071394;28;903;-67
2022/04/20 05:34:33;;;;;;;;;;;;;;;;;;5069752;28;1272;-66
2022/04/20 05:42:26;;;;;;;;;;;;;;;;;;5071335;28;629;-66
2022/04/20 05:44:51;;;;;;;;;;;;;;;;;;5071102;28;824;-66
2022/04/20 05:47:16;;;;;;;;;;;;;;;;;;5070774;28;781;-67
2022/04/20 05:49:42;;;;;;;;;;;;;;;;;;5071195;28;892;-67
2022/04/20 05:52:07;;;;;;;;;;;;;;;;;;5071152;28;1038;-67
2022/04/20 05:54:32;;;;;;;;;;;;;;;;;;5070516;28;911;-67
2022/04/20 05:56:58;;;;;;;;;;;;;;;;;;5070512;28;1969;-67
2022/04/20 05:59:23;;;;;;;;;;;;;;;;;;5070695;28;973;-67
2022/04/20 06:01:49;;;;;;;;;;;;;;;;;;5073160;28;793;-67
2022/04/20 06:04:14;;;;;;;;;;;;;;;;;;5072986;28;821;-67
2022/04/20 06:06:39;;;;;;;;;;;;;;;;;;5073619;28;817;-67
2022/04/20 06:09:05;;;;;;;;;;;;;;;;;;5072787;28;1214;-67
2022/04/20 06:11:30;;;;;;;;;;;;;;;;;;5074231;28;962;-67
2022/04/20 06:13:56;;;;;;;;;;;;;;;;;;5074181;28;848;-67
2022/04/20 06:16:21;;;;;;;;;;;;;;;;;;5072962;28;1366;-66
2022/04/20 06:18:46;;;;;;;;;;;;;;;;;;5074180;28;1965;-67
2022/04/20 06:21:12;;;;;;;;;;;;;;;;;;5074218;28;844;-67
2022/04/20 06:23:37;;;;;;;;;;;;;;;;;;5073117;28;1355;-67
2022/04/20 06:26:03;;;;;;;;;;;;;;;;;;5074604;28;895;-67
2022/04/20 06:28:28;;;;;;;;;;;;;;;;;;5073587;28;1198;-67
2022/04/20 06:30:54;;;;;;;;;;;;;;;;;;5075021;28;852;-67
2022/04/20 06:33:21;;;;;;;;;;;;;;;;;;5056844;28;1147;-67
2022/04/20 06:35:46;;;;;;;;;;;;;;;;;;5073103;28;1349;-67
2022/04/20 06:38:12;;;;;;;;;;;;;;;;;;5074365;28;1909;-67
2022/04/20 06:40:37;;;;;;;;;;;;;;;;;;5074179;28;982;-66
2022/04/20 06:43:02;;;;;;;;;;;;;;;;;;5055595;28;1211;-66
2022/04/20 06:45:28;;;;;;;;;;;;;;;;;;5072373;28;986;-66
2022/04/20 06:47:57;;;;;;;;;;;;;;;;;;5073883;28;782;-66
2022/04/20 06:50:23;;;;;;;;;;;;;;;;;;5073854;28;924;-66
2022/04/20 06:58:31;;;;;;;;;;;;;;;;;;5073289;28;1917;-67
2022/04/20 07:00:56;;;;;;;;;;;;;;;;;;5072609;28;818;-66
2022/04/20 07:03:22;;;;;;;;;;;;;;;;;;5073060;28;837;-66
2022/04/20 07:05:47;;;;;;;;;;;;;;;;;;5071338;28;939;-66
2022/04/20 07:08:12;;;;;;;;;;;;;;;;;;5072725;28;820;-67
2022/04/20 07:10:37;;;;;;;;;;;;;;;;;;5072619;28;899;-67
2022/04/20 07:13:03;;;;;;;;;;;;;;;;;;5071066;28;1179;-67
2022/04/20 07:15:28;;;;;;;;;;;;;;;;;;5072314;28;758;-67
2022/04/20 07:17:53;;;;;;;;;;;;;;;;;;5071023;28;1955;-67
2022/04/20 07:20:19;;;;;;;;;;;;;;;;;;5072737;28;828;-66
2022/04/20 07:22:48;;;;;;;;;;;;;;;;;;5053860;28;1262;-67
2022/04/20 07:25:15;;;;;;;;;;;;;;;;;;5072212;28;836;-67
2022/04/20 07:27:40;;;;;;;;;;;;;;;;;;5070340;28;1131;-66
2022/04/20 07:30:06;;;;;;;;;;;;;;;;;;5071763;28;859;-66
2022/04/20 07:32:31;;;;;;;;;;;;;;;;;;5070398;28;1168;-66
2022/04/20 07:34:56;;;;;;;;;;;;;;;;;;5070223;28;1325;-66
2022/04/20 07:37:21;;;;;;;;;;;;;;;;;;5071535;28;1910;-67
2022/04/20 07:39:47;;;;;;;;;;;;;;;;;;5071589;28;758;-66
2022/04/20 07:42:13;;;;;;;;;;;;;;;;;;5071950;28;865;-67
2022/04/20 07:44:38;;;;;;;;;;;;;;;;;;5071546;28;1097;-67
2022/04/20 07:47:03;;;;;;;;;;;;;;;;;;5070001;28;813;-67
2022/04/20 07:52:12;;;;;;;;;;;;;;;;;;5071743;28;709;-66
2022/04/20 07:54:38;;;;;;;;;;;;;;;;;;5069960;28;1323;-67
2022/04/20 07:57:03;;;;;;;;;;;;;;;;;;5071180;28;1913;-67
2022/04/20 07:59:28;;;;;;;;;;;;;;;;;;5071281;28;995;-67
2022/04/20 08:01:53;;;;;;;;;;;;;;;;;;5070312;28;896;-66
2022/04/20 08:04:19;;;;;;;;;;;;;;;;;;5072231;28;950;-67
2022/04/20 08:06:46;;;;;;;;;;;;;;;;;;5070471;28;1540;-67
2022/04/20 08:09:11;;;;;;;;;;;;;;;;;;5071783;28;919;-67
2022/04/20 08:11:36;;;;;;;;;;;;;;;;;;5071479;28;840;-67
2022/04/20 08:14:10;;;;;;;;;;;;;;;;;;5071859;28;821;-66
2022/04/20 08:16:36;;;;;;;;;;;;;;;;;;5072209;28;837;-66
2022/04/20 08:19:01;;;;;;;;;;;;;;;;;;5071516;28;1919;-67
2022/04/20 08:21:27;;;;;;;;;;;;;;;;;;5070596;28;1217;-66
2022/04/20 08:23:52;;;;;;;;;;;;;;;;;;5070170;28;894;-67
2022/04/20 08:26:18;;;;;;;;;;;;;;;;;;5070492;28;1325;-68
2022/04/20 08:28:43;;;;;;;;;;;;;;;;;;5071225;28;1202;-67
2022/04/20 08:31:08;;;;;;;;;;;;;;;;;;5071905;28;876;-67
2022/04/20 08:33:33;;;;;;;;;;;;;;;;;;5070546;28;947;-68
2022/04/20 08:35:59;;;;;;;;;;;;;;;;;;5071871;28;896;-67
2022/04/20 08:38:24;;;;;;;;;;;;;;;;;;5071421;28;1922;-67
2022/04/20 08:40:52;;;;;;;;;;;;;;;;;;5071307;28;1074;-67
2022/04/20 08:43:19;;;;;;;;;;;;;;;;;;5069690;28;1208;-67
2022/04/20 08:45:46;;;;;;;;;;;;;;;;;;5070590;28;1047;-67
2022/04/20 08:48:11;;;;;;;;;;;;;;;;;;5070754;28;876;-67
2022/04/20 08:50:36;;;;;;;;;;;;;;;;;;5070803;28;899;-66
2022/04/20 08:53:02;;;;;;;;;;;;;;;;;;5069380;28;794;-66
2022/04/20 08:55:28;;;;;;;;;;;;;;;;;;5069623;28;1191;-67
2022/04/20 08:57:54;;;;;;;;;;;;;;;;;;5068851;28;1905;-67
2022/04/20 09:00:24;;;;;;;;;;;;;;;;;;5069839;28;1317;-68
2022/04/20 09:02:52;;;;;;;;;;;;;;;;;;5052938;28;1073;-66
2022/04/20 09:05:17;;;;;;;;;;;;;;;;;;5069331;28;1403;-66
2022/04/20 09:07:42;;;;;;;;;;;;;;;;;;5071277;28;943;-67
2022/04/20 09:10:08;;;;;;;;;;;;;;;;;;5070701;28;879;-65
2022/04/20 09:12:39;;;;;;;;;;;;;;;;;;5069657;28;1370;-66
2022/04/20 09:15:05;;;;;;;;;;;;;;;;;;5070644;28;837;-66
2022/04/20 09:17:32;;;;;;;;;;;;;;;;;;5069773;28;1901;-67
2022/04/20 09:19:58;;;;;;;;;;;;;;;;;;5068715;28;1335;-67
2022/04/20 09:22:27;;;;;;;;;;;;;;;;;;5070939;28;833;-67
2022/04/20 09:25:00;;;;;;;;;;;;;;;;;;5068994;28;1441;-67
2022/04/20 09:27:30;;;;;;;;;;;;;;;;;;5070809;28;836;-66
2022/04/20 09:29:56;;;;;;;;;;;;;;;;;;5070680;28;844;-67
2022/04/20 09:32:38;;;;;;;;;;;;;;;;;;5070717;28;820;-67
2022/04/20 09:35:05;;;;;;;;;;;;;;;;;;5071074;28;762;-67
2022/04/20 09:37:31;;;;;;;;;;;;;;;;;;5073703;28;1909;-67
2022/04/20 09:39:57;;;;;;;;;;;;;;;;;;5074108;28;785;-66
2022/04/20 09:42:23;;;;;;;;;;;;;;;;;;5074317;28;907;-67
2022/04/20 09:44:59;;;;;;;;;;;;;;;;;;5055708;28;1332;-67
2022/04/20 09:50:10;;;;;;;;;;;;;;;;;;5074325;28;683;-67
2022/04/20 09:52:41;;;;;;;;;;;;;;;;;;5074083;28;864;-66
2022/04/20 09:55:07;;;;;;;;;;;;;;;;;;5074063;28;849;-66
2022/04/20 09:57:34;;;;;;;;;;;;;;;;;;5074162;28;2000;-67
2022/04/20 10:00:12;;;;;;;;;;;;;;;;;;5072824;28;858;-66
2022/04/20 10:02:43;;;;;;;;;;;;;;;;;;5073991;28;872;-66
2022/04/20 10:05:08;;;;;;;;;;;;;;;;;;5072517;28;718;-66
2022/04/20 10:07:34;;;;;;;;;;;;;;;;;;5074156;28;1085;-66
2022/04/20 10:09:59;;;;;;;;;;;;;;;;;;5072119;28;1194;-66
2022/04/20 10:12:26;;;;;;;;;;;;;;;;;;5073686;28;967;-66
2022/04/20 10:17:46;;;;;;;;;;;;;;;;;;5073798;28;1897;-66
2022/04/20 10:20:11;;;;;;;;;;;;;;;;;;5074033;28;919;-66
2022/04/20 10:22:37;;;;;;;;;;;;;;;;;;5074108;28;884;-66
2022/04/20 10:25:04;;;;;;;;;;;;;;;;;;5073118;28;758;-66
2022/04/20 10:27:49;;;;;;;;;;;;;;;;;;5073936;28;1025;-66
2022/04/20 10:30:27;;;;;;;;;;;;;;;;;;5073240;28;983;-66
2022/04/20 10:33:07;;;;;;;;;;;;;;;;;;5072927;28;998;-66
2022/04/20 10:35:52;;;;;;;;;;;;;;;;;;5071688;28;1563;-66
2022/04/20 10:38:17;;;;;;;;;;;;;;;;;;5071296;28;1906;-66
2022/04/20 10:40:57;;;;;;;;;;;;;;;;;;5073269;28;955;-66
2022/04/20 10:43:24;;;;;;;;;;;;;;;;;;5073579;28;844;-66
2022/04/20 10:46:08;;;;;;;;;;;;;;;;;;5071540;28;1176;-66
2022/04/20 10:48:48;;;;;;;;;;;;;;;;;;5072538;28;857;-66
2022/04/20 10:51:24;;;;;;;;;;;;;;;;;;5073172;28;1014;-66
2022/04/20 10:53:50;;;;;;;;;;;;;;;;;;5071726;28;1316;-67
2022/04/20 10:56:19;;;;;;;;;;;;;;;;;;5073484;28;888;-67
2022/04/20 10:59:03;;;;;;;;;;;;;;;;;;5071196;28;1906;-67
2022/04/20 11:01:29;;;;;;;;;;;;;;;;;;5073447;28;951;-67
2022/04/20 11:03:57;;;;;;;;;;;;;;;;;;5071616;28;1151;-67
2022/04/20 11:06:26;;;;;;;;;;;;;;;;;;5073135;28;797;-67
2022/04/20 11:08:52;;;;;;;;;;;;;;;;;;5072148;28;1319;-66
2022/04/20 11:19:52;;;;;;;;;;;;;;;;;;5073144;28;731;-67
2022/04/20 11:22:17;;;;;;;;;;;;;;;;;;5071948;28;891;-67
2022/04/20 11:24:42;;;;;;;;;;;;;;;;;;5072524;28;923;-67
2022/04/20 11:27:08;;;;;;;;;;;;;;;;;;5072132;28;911;-66
2022/04/20 11:29:34;;;;;;;;;;;;;;;;;;5072161;28;924;-66
2022/04/20 11:32:00;;;;;;;;;;;;;;;;;;5053461;28;1379;-66
2022/04/20 11:34:26;;;;;;;;;;;;;;;;;;5054536;28;1203;-66
2022/04/20 11:36:53;;;;;;;;;;;;;;;;;;5072578;28;1278;-67
2022/04/20 11:39:20;;;;;;;;;;;;;;;;;;5072612;28;1967;-67
2022/04/20 11:41:46;;;;;;;;;;;;;;;;;;5070971;28;1313;-67
2022/04/20 11:44:21;;;;;;;;;;;;;;;;;;5072199;28;821;-67
2022/04/20 11:46:47;;;;;;;;;;;;;;;;;;5072343;28;750;-67
2022/04/20 11:49:12;;;;;;;;;;;;;;;;;;5072362;28;868;-67
2022/04/20 11:51:43;;;;;;;;;;;;;;;;;;5072362;28;1080;-67
2022/04/20 11:54:08;;;;;;;;;;;;;;;;;;5072092;28;888;-67
2022/04/20 11:56:35;;;;;;;;;;;;;;;;;;5072036;28;805;-67
2022/04/20 11:59:02;;;;;;;;;;;;;;;;;;5069369;28;1957;-67
2022/04/20 12:01:29;;;;;;;;;;;;;;;;;;5072163;28;876;-67
2022/04/20 12:03:55;;;;;;;;;;;;;;;;;;5071671;28;869;-67
2022/04/20 12:06:23;;;;;;;;;;;;;;;;;;5070187;28;1485;-67
2022/04/20 12:08:51;;;;;;;;;;;;;;;;;;5070269;28;1221;-67
2022/04/20 12:11:16;;;;;;;;;;;;;;;;;;5072042;28;785;-67
2022/04/20 12:13:42;;;;;;;;;;;;;;;;;;5071426;28;754;-69
2022/04/20 12:16:11;;;;;;;;;;;;;;;;;;5069681;28;884;-67
2022/04/20 12:18:40;;;;;;;;;;;;;;;;;;5071423;28;1961;-68
2022/04/20 12:21:09;;;;;;;;;;;;;;;;;;5071501;28;836;-67
2022/04/20 12:23:35;;;;;;;;;;;;;;;;;;5071339;28;892;-67
2022/04/20 12:26:04;;;;;;;;;;;;;;;;;;5071251;28;853;-67
2022/04/20 12:28:36;;;;;;;;;;;;;;;;;;5070322;28;1198;-67
2022/04/20 12:31:02;;;;;;;;;;;;;;;;;;5071340;28;939;-67
2022/04/20 12:33:28;;;;;;;;;;;;;;;;;;5071516;28;888;-67
2022/04/20 12:36:00;;;;;;;;;;;;;;;;;;5071419;28;895;-67
2022/04/20 12:38:26;;;;;;;;;;;;;;;;;;5070847;28;1907;-67
2022/04/20 12:40:52;;;;;;;;;;;;;;;;;;5071334;28;990;-67
2022/04/20 12:43:17;;;;;;;;;;;;;;;;;;5069670;28;1201;-67
2022/04/20 12:45:43;;;;;;;;;;;;;;;;;;5070217;28;758;-67
2022/04/20 12:48:11;;;;;;;;;;;;;;;;;;5070261;28;829;-67
2022/04/20 12:50:37;;;;;;;;;;;;;;;;;;5069863;28;1219;-67
2022/04/20 12:53:02;;;;;;;;;;;;;;;;;;5068985;28;1290;-67
2022/04/20 13:02:01;;;;;;;;;;;;;;;;;;5070023;28;1198;-67
2022/04/20 13:04:11;;;;;;;;;;;;;;;;;;5071032;28;694;-67
2022/04/20 13:06:37;;;;;;;;;;;;;;;;;;5070286;28;907;-67
2022/04/20 13:09:02;;;;;;;;;;;;;;;;;;5070793;28;873;-67
2022/04/20 13:11:28;;;;;;;;;;;;;;;;;;5074435;28;856;-67
2022/04/20 13:13:55;;;;;;;;;;;;;;;;;;5073799;28;910;-67
2022/04/20 13:16:21;;;;;;;;;;;;;;;;;;5075124;28;1007;-67
2022/04/20 13:18:46;;;;;;;;;;;;;;;;;;5075296;28;1906;-67
2022/04/20 13:21:12;;;;;;;;;;;;;;;;;;5074917;28;821;-67
2022/04/20 13:23:37;;;;;;;;;;;;;;;;;;5075278;28;895;-67
2022/04/20 13:28:47;;;;;;;;;;;;;;;;;;5073623;28;683;-67
2022/04/20 13:31:13;;;;;;;;;;;;;;;;;;5073061;28;918;-67
2022/04/20 13:33:39;;;;;;;;;;;;;;;;;;5073643;28;1230;-67
2022/04/20 13:36:04;;;;;;;;;;;;;;;;;;5074647;28;848;-68
2022/04/20 13:38:31;;;;;;;;;;;;;;;;;;5072609;28;1901;-68
2022/04/20 13:40:56;;;;;;;;;;;;;;;;;;5072918;28;1359;-67
2022/04/20 13:43:21;;;;;;;;;;;;;;;;;;5073884;28;831;-68
2022/04/20 13:45:47;;;;;;;;;;;;;;;;;;5072364;28;841;-67
2022/04/20 13:48:13;;;;;;;;;;;;;;;;;;5072519;28;863;-67
2022/04/20 13:50:38;;;;;;;;;;;;;;;;;;5074092;28;769;-68
2022/04/20 13:53:05;;;;;;;;;;;;;;;;;;5074203;28;895;-68
2022/04/20 13:55:30;;;;;;;;;;;;;;;;;;5073889;28;817;-67
2022/04/20 13:57:56;;;;;;;;;;;;;;;;;;5072402;28;1906;-67
2022/04/20 14:00:21;;;;;;;;;;;;;;;;;;5072994;28;896;-68
2022/04/20 14:02:46;;;;;;;;;;;;;;;;;;5074177;28;781;-67
2022/04/20 14:05:12;;;;;;;;;;;;;;;;;;5074202;28;829;-67
2022/04/20 14:07:40;;;;;;;;;;;;;;;;;;5073187;28;824;-67
2022/04/20 14:10:08;;;;;;;;;;;;;;;;;;5072488;28;1470;-67
2022/04/20 14:12:33;;;;;;;;;;;;;;;;;;5072661;28;1361;-67
2022/04/20 14:15:01;;;;;;;;;;;;;;;;;;5072658;28;825;-67
2022/04/20 14:17:27;;;;;;;;;;;;;;;;;;5073867;28;1906;-67
2022/04/20 14:19:52;;;;;;;;;;;;;;;;;;5074225;28;900;-67
2022/04/20 14:22:18;;;;;;;;;;;;;;;;;;5054899;28;1361;-67
2022/04/20 14:24:44;;;;;;;;;;;;;;;;;;5073988;28;995;-67
2022/04/20 14:32:39;;;;;;;;;;;;;;;;;;5074161;28;685;-68
2022/04/20 14:35:05;;;;;;;;;;;;;;;;;;5072186;28;758;-67
2022/04/20 14:37:30;;;;;;;;;;;;;;;;;;5073044;28;1910;-67
2022/04/20 14:39:57;;;;;;;;;;;;;;;;;;5073140;28;1076;-67
2022/04/20 14:42:22;;;;;;;;;;;;;;;;;;5073550;28;880;-68
2022/04/20 14:44:48;;;;;;;;;;;;;;;;;;5073066;28;1035;-68
2022/04/20 14:47:13;;;;;;;;;;;;;;;;;;5073099;28;887;-68
2022/04/20 14:49:39;;;;;;;;;;;;;;;;;;5073539;28;994;-68
2022/04/20 14:52:07;;;;;;;;;;;;;;;;;;5073392;28;971;-67
2022/04/20 14:54:33;;;;;;;;;;;;;;;;;;5071863;28;1190;-67
2022/04/20 14:56:58;;;;;;;;;;;;;;;;;;5073342;28;891;-68
2022/04/20 14:59:23;;;;;;;;;;;;;;;;;;5073385;28;1914;-68
2022/04/20 15:01:49;;;;;;;;;;;;;;;;;;5073206;28;833;-67
2022/04/20 15:04:14;;;;;;;;;;;;;;;;;;5071770;28;1078;-67
2022/04/20 15:06:40;;;;;;;;;;;;;;;;;;5072655;28;900;-68
2022/04/20 15:09:05;;;;;;;;;;;;;;;;;;5072271;28;1475;-67
2022/04/20 15:11:31;;;;;;;;;;;;;;;;;;5069900;28;1184;-67
2022/04/20 15:13:57;;;;;;;;;;;;;;;;;;5081619;28;1308;-68
2022/04/20 15:16:23;;;;;;;;;;;;;;;;;;5071621;28;1120;-68
2022/04/20 15:18:48;;;;;;;;;;;;;;;;;;5071144;28;1961;-68
2022/04/20 15:21:14;;;;;;;;;;;;;;;;;;5091442;28;1148;-67
2022/04/20 15:23:39;;;;;;;;;;;;;;;;;;5090329;28;1253;-68
2022/04/20 15:26:05;;;;;;;;;;;;;;;;;;5092052;28;1408;-67
2022/04/20 15:28:31;;;;;;;;;;;;;;;;;;5093182;28;879;-68
2022/04/20 15:30:57;;;;;;;;;;;;;;;;;;5090838;28;1175;-68
2022/04/20 15:33:23;;;;;;;;;;;;;;;;;;5091718;28;840;-67
2022/04/20 15:35:48;;;;;;;;;;;;;;;;;;5090188;28;1315;-68
2022/04/20 15:38:13;;;;;;;;;;;;;;;;;;5092703;28;1971;-68
2022/04/20 15:40:42;;;;;;;;;;;;;;;;;;5092974;28;896;-68
2022/04/20 15:43:09;;;;;;;;;;;;;;;;;;5092865;28;903;-67
2022/04/20 15:45:35;;;;;;;;;;;;;;;;;;5092410;28;864;-68
2022/04/20 15:48:01;;;;;;;;;;;;;;;;;;5092513;28;860;-67
2022/04/20 15:50:27;;;;;;;;;;;;;;;;;;5092749;28;782;-67
2022/04/20 15:52:52;;;;;;;;;;;;;;;;;;5074321;28;1375;-68
2022/04/20 16:00:46;;;;;;;;;;;;;;;;;;5092033;28;663;-67
2022/04/20 16:03:11;;;;;;;;;;;;;;;;;;5092815;28;837;-68
2022/04/20 16:05:37;;;;;;;;;;;;;;;;;;5091186;28;1357;-67
2022/04/20 16:08:02;;;;;;;;;;;;;;;;;;5092469;28;931;-68
2022/04/20 16:10:28;;;;;;;;;;;;;;;;;;5092578;28;836;-68
2022/04/20 16:12:53;;;;;;;;;;;;;;;;;;5092624;28;820;-67
2022/04/20 16:15:20;;;;;;;;;;;;;;;;;;5092230;28;982;-67
2022/04/20 16:17:45;;;;;;;;;;;;;;;;;;5092031;28;1902;-67
2022/04/20 16:20:11;;;;;;;;;;;;;;;;;;5090664;28;1046;-67
2022/04/20 16:22:37;;;;;;;;;;;;;;;;;;5091708;28;864;-67
2022/04/20 16:25:06;;;;;;;;;;;;;;;;;;5090295;28;1279;-68
2022/04/20 16:27:31;;;;;;;;;;;;;;;;;;5091511;28;1115;-67
2022/04/20 16:29:57;;;;;;;;;;;;;;;;;;5091510;28;860;-67
2022/04/20 16:32:22;;;;;;;;;;;;;;;;;;5090421;28;798;-68
2022/04/20 16:34:49;;;;;;;;;;;;;;;;;;5091143;28;809;-67
2022/04/20 16:37:14;;;;;;;;;;;;;;;;;;5091248;28;1898;-67
2022/04/20 16:39:39;;;;;;;;;;;;;;;;;;5091311;28;1100;-68
2022/04/20 16:42:05;;;;;;;;;;;;;;;;;;5092080;28;815;-67
2022/04/20 16:44:30;;;;;;;;;;;;;;;;;;5090769;28;1102;-67
2022/04/20 16:46:55;;;;;;;;;;;;;;;;;;5091253;28;859;-67
2022/04/20 16:49:21;;;;;;;;;;;;;;;;;;5091501;28;891;-67
2022/04/20 16:51:47;;;;;;;;;;;;;;;;;;5090236;28;883;-68
2022/04/20 16:54:12;;;;;;;;;;;;;;;;;;5092121;28;832;-68
2022/04/20 16:56:37;;;;;;;;;;;;;;;;;;5092253;28;891;-66
2022/04/20 16:59:02;;;;;;;;;;;;;;;;;;5091413;28;1902;-67
2022/04/20 17:01:28;;;;;;;;;;;;;;;;;;5091650;28;848;-67
2022/04/20 17:03:53;;;;;;;;;;;;;;;;;;5090583;28;1186;-67
2022/04/20 17:06:19;;;;;;;;;;;;;;;;;;5090725;28;1322;-67
2022/04/20 17:08:44;;;;;;;;;;;;;;;;;;5090491;28;987;-67
2022/04/20 17:11:09;;;;;;;;;;;;;;;;;;5090326;28;1351;-68
2022/04/20 17:13:35;;;;;;;;;;;;;;;;;;5091332;28;958;-68
2022/04/20 17:16:00;;;;;;;;;;;;;;;;;;5090390;28;844;-68
2022/04/20 17:18:26;;;;;;;;;;;;;;;;;;5073367;28;1898;-68
2022/04/20 17:26:34;;;;;;;;;;;;;;;;;;5091362;28;645;-66
2022/04/20 17:29:00;;;;;;;;;;;;;;;;;;5090103;28;1281;-67
2022/04/20 17:31:25;;;;;;;;;;;;;;;;;;5090545;28;872;-68
2022/04/20 17:33:51;;;;;;;;;;;;;;;;;;5090791;28;883;-68
2022/04/20 17:39:00;;;;;;;;;;;;;;;;;;5090691;28;1901;-68
2022/04/20 17:41:26;;;;;;;;;;;;;;;;;;5090825;28;888;-68
2022/04/20 17:43:51;;;;;;;;;;;;;;;;;;5090820;28;837;-66
2022/04/20 17:46:16;;;;;;;;;;;;;;;;;;5089929;28;995;-66
2022/04/20 17:48:41;;;;;;;;;;;;;;;;;;5090571;28;793;-67
2022/04/20 17:51:07;;;;;;;;;;;;;;;;;;5090612;28;872;-67
2022/04/20 17:53:32;;;;;;;;;;;;;;;;;;5090948;28;836;-68
2022/04/20 17:55:57;;;;;;;;;;;;;;;;;;5089033;28;1537;-68
2022/04/20 17:58:23;;;;;;;;;;;;;;;;;;5094424;28;1980;-68
2022/04/20 18:00:48;;;;;;;;;;;;;;;;;;5094609;28;1166;-68
2022/04/20 18:03:13;;;;;;;;;;;;;;;;;;5094408;28;806;-68
2022/04/20 18:05:40;;;;;;;;;;;;;;;;;;5094622;28;951;-68
2022/04/20 18:08:05;;;;;;;;;;;;;;;;;;5094360;28;849;-68
2022/04/20 18:10:31;;;;;;;;;;;;;;;;;;5093404;28;1162;-68